Terminal Aerodrome Forecast
Issued by NWS Binghamton, NY

Home | Current Version | Previous Version | Text Only | Print | Product List | Glossary On
Versions: 1 2 3 4 5 6 7 8 9 10 11 12 13 14 15 16 17 18 19 20 21 22 23 24 25
000
FTUS41 KBGM 311900 AAB
TAFSYR
TAF AMD
KSYR 311953Z 3120/0118 23005KT P6SM SCT040 BKN120
      TEMPO 3121/3122 33010G18KT 2SM SHRA OVC015
     FM312300 18004KT P6SM SCT250
     FM011500 27006KT P6SM SCT050 BKN250=

USA.gov is the U.S. government's official web portal to all federal, state and local government web resources and services.